Time;durP1;ratioP1;P1;durP2;ratioP2;P2;SDS_P1;SDS_P2;PMS_P1;PMS_P2;Temp;Humidity;BMP_temperature;BMP_pressure;BME280_temperature;BME280_humidity;BME280_pressure;Samples;Min_cycle;Max_cycle;Signal;HPM_P1;HPM_P2
2021/12/04 00:00:09;;;;;;;3.30;1.17;;;23.90;65.20;;;;;;4160868;28;20063;-53
2021/12/04 00:02:12;;;;;;;3.88;1.13;;;23.90;65.10;;;;;;4160020;28;20052;-54
2021/12/04 00:04:19;;;;;;;3.35;1.38;;;24.00;65.10;;;;;;4162483;28;20406;-53
2021/12/04 00:06:27;;;;;;;4.28;1.55;;;23.90;65.00;;;;;;4162994;28;20620;-56
2021/12/04 00:08:33;;;;;;;2.15;0.80;;;23.90;65.00;;;;;;4170594;28;20060;-49
2021/12/04 00:10:35;;;;;;;2.03;1.08;;;23.90;65.20;;;;;;4163447;28;20921;-49
2021/12/04 00:12:37;;;;;;;4.50;1.20;;;23.90;65.40;;;;;;4158255;28;20051;-53
2021/12/04 00:14:41;;;;;;;1.45;0.93;;;24.00;65.30;;;;;;4158213;28;20051;-49
2021/12/04 00:16:43;;;;;;;10.05;1.58;;;24.00;65.80;;;;;;4167265;28;20264;-47
2021/12/04 00:18:45;;;;;;;6.13;1.10;;;24.00;65.30;;;;;;4163045;28;20183;-51
2021/12/04 00:20:47;;;;;;;8.15;1.58;;;24.00;65.20;;;;;;4158535;28;20090;-47
2021/12/04 00:22:49;;;;;;;3.65;1.10;;;24.00;65.20;;;;;;4159018;28;20151;-50
2021/12/04 00:24:51;;;;;;;5.90;1.45;;;24.00;65.10;;;;;;4169868;28;20479;-47
2021/12/04 00:26:54;;;;;;;3.42;1.30;;;24.00;65.00;;;;;;4161563;28;20052;-45
2021/12/04 00:28:56;;;;;;;3.17;1.27;;;24.00;65.00;;;;;;4160124;28;20743;-49
2021/12/04 00:31:04;;;;;;;5.55;1.33;;;24.00;65.00;;;;;;4163262;28;20667;-46
2021/12/04 00:33:13;;;;;;;5.20;1.40;;;24.00;64.90;;;;;;4166792;28;20051;-47
2021/12/04 00:35:23;;;;;;;6.50;1.90;;;24.00;65.00;;;;;;4170158;28;21062;-51
2021/12/04 00:49:16;;;;;;;5.65;1.80;;;24.00;64.60;;;;;;4173861;28;20166;-51
2021/12/04 00:51:18;;;;;;;3.03;1.42;;;24.00;64.60;;;;;;4167133;28;20402;-51
2021/12/04 00:53:21;;;;;;;2.17;1.02;;;24.00;64.50;;;;;;4174153;28;20174;-53
2021/12/04 00:55:23;;;;;;;4.25;1.85;;;24.00;64.60;;;;;;4169636;28;20044;-47
2021/12/04 00:57:25;;;;;;;4.30;1.60;;;24.00;64.60;;;;;;4165811;28;20766;-47
2021/12/04 00:59:28;;;;;;;3.80;1.50;;;24.00;64.50;;;;;;4168962;28;20048;-48
2021/12/04 01:01:30;;;;;;;4.88;1.50;;;24.00;64.50;;;;;;4173575;28;20758;-50
2021/12/04 01:03:35;;;;;;;4.15;1.70;;;24.00;64.50;;;;;;4167604;28;20048;-48
2021/12/04 01:05:37;;;;;;;4.15;1.63;;;23.90;64.40;;;;;;4166245;28;20057;-46
2021/12/04 01:07:39;;;;;;;4.95;1.88;;;24.00;65.10;;;;;;4169300;28;20143;-46
2021/12/04 01:09:43;;;;;;;4.78;1.42;;;23.90;64.50;;;;;;4174606;28;20052;-46
2021/12/04 01:11:44;;;;;;;;;;;24.00;64.50;;;;;;4167418;28;20048;-47
2021/12/04 01:13:47;;;;;;;3.97;1.35;;;24.00;64.40;;;;;;4166461;28;20027;-49
2021/12/04 01:15:49;;;;;;;2.15;1.20;;;24.00;64.40;;;;;;4172179;28;20098;-45
2021/12/04 01:17:51;;;;;;;4.20;1.60;;;23.90;64.20;;;;;;4172619;28;20648;-49
2021/12/04 01:19:53;;;;;;;3.95;1.70;;;24.00;64.30;;;;;;4167572;28;20067;-47
2021/12/04 01:21:56;;;;;;;4.45;1.30;;;24.00;64.30;;;;;;4166370;28;20047;-46
2021/12/04 01:23:58;;;;;;;5.15;1.55;;;24.00;64.20;;;;;;4176084;28;20086;-51
2021/12/04 01:26:00;;;;;;;2.70;1.60;;;24.00;64.20;;;;;;4169265;28;20185;-47
2021/12/04 01:28:04;;;;;;;4.88;1.42;;;24.00;64.20;;;;;;4167017;28;20056;-46
2021/12/04 01:30:07;;;;;;;4.05;1.73;;;24.00;64.10;;;;;;4168378;28;20044;-45
2021/12/04 01:32:10;;;;;;;3.95;1.70;;;24.00;64.10;;;;;;4177059;28;20181;-46
2021/12/04 01:34:14;;;;;;;3.47;1.55;;;24.00;64.10;;;;;;4173336;28;20582;-45
2021/12/04 01:36:16;;;;;;;3.50;1.45;;;24.00;64.10;;;;;;4171234;28;20079;-49
2021/12/04 01:38:18;;;;;;;4.15;1.33;;;24.00;64.20;;;;;;4171779;28;21248;-48
2021/12/04 01:40:21;;;;;;;3.15;1.27;;;24.00;64.10;;;;;;4180472;28;20514;-49
2021/12/04 01:42:23;;;;;;;3.63;1.63;;;24.00;64.00;;;;;;4175013;28;20056;-47
2021/12/04 01:44:25;;;;;;;2.72;1.23;;;24.00;64.00;;;;;;4171195;28;20417;-48
2021/12/04 01:46:29;;;;;;;7.22;1.60;;;24.00;64.00;;;;;;4171624;28;20055;-48
2021/12/04 01:48:31;;;;;;;2.45;1.05;;;24.00;63.90;;;;;;4174150;28;20078;-47
2021/12/04 01:50:34;;;;;;;4.88;1.45;;;24.00;64.00;;;;;;4168795;28;20121;-45
2021/12/04 01:52:36;;;;;;;;;;;24.00;63.90;;;;;;4165858;28;20054;-52
2021/12/04 01:54:38;;;;;;;4.82;1.35;;;24.00;63.80;;;;;;4170456;28;19927;-48
2021/12/04 01:56:41;;;;;;;4.45;1.70;;;24.00;63.70;;;;;;4174728;28;20147;-48
2021/12/04 01:58:44;;;;;;;4.85;1.55;;;24.00;63.50;;;;;;4165722;28;20092;-47
2021/12/04 02:00:47;;;;;;;3.90;1.63;;;24.00;63.50;;;;;;4166060;28;21419;-49
2021/12/04 02:02:49;;;;;;;4.10;1.50;;;24.00;63.50;;;;;;4168820;28;20052;-45
2021/12/04 02:04:51;;;;;;;5.33;1.50;;;24.00;63.40;;;;;;4171096;28;20155;-49
2021/12/04 02:06:53;;;;;;;3.15;1.23;;;24.00;63.40;;;;;;4165392;28;20320;-44
2021/12/04 02:08:55;;;;;;;4.13;1.45;;;24.00;63.40;;;;;;4165360;28;20099;-47
2021/12/04 02:11:00;;;;;;;3.83;1.42;;;24.00;63.30;;;;;;4173246;28;20178;-43
2021/12/04 02:13:03;;;;;;;4.47;1.58;;;24.00;63.30;;;;;;4169970;28;21627;-46
2021/12/04 02:15:10;;;;;;;3.35;0.98;;;24.00;63.30;;;;;;4158922;28;20048;-49
2021/12/04 02:17:12;;;;;;;3.55;1.20;;;24.00;63.20;;;;;;4158576;28;20074;-53
2021/12/04 02:19:15;;;;;;;3.13;1.20;;;24.10;62.50;;;;;;4165011;28;20058;-52
2021/12/04 02:21:18;;;;;;;5.50;1.60;;;24.10;63.10;;;;;;4168191;28;20052;-52
2021/12/04 02:23:20;;;;;;;2.83;1.30;;;24.10;63.00;;;;;;4158228;28;20032;-49
2021/12/04 02:25:23;;;;;;;4.22;1.48;;;24.10;62.90;;;;;;4159389;28;20071;-47
2021/12/04 02:27:25;;;;;;;2.50;1.23;;;24.10;62.90;;;;;;4163772;28;20466;-48
2021/12/04 02:29:28;;;;;;;1.60;1.10;;;24.10;63.40;;;;;;4163140;28;20059;-50
2021/12/04 02:31:30;;;;;;;2.30;1.23;;;24.10;62.70;;;;;;4159354;28;20104;-49
2021/12/04 02:33:32;;;;;;;2.50;0.90;;;24.10;62.70;;;;;;4159588;28;20105;-46
2021/12/04 02:35:34;;;;;;;3.15;1.92;;;24.10;62.60;;;;;;4160993;28;20052;-48
2021/12/04 02:37:38;;;;;;;5.05;2.60;;;24.10;62.50;;;;;;4159472;28;21148;-50
2021/12/04 02:39:45;;;;;;;5.45;2.30;;;24.10;63.10;;;;;;4156519;28;20044;-51
2021/12/04 02:41:47;;;;;;;2.97;1.83;;;24.10;62.40;;;;;;4159403;28;20052;-49
2021/12/04 02:43:50;;;;;;;3.63;1.73;;;24.20;62.40;;;;;;4164980;28;20044;-47
2021/12/04 02:45:52;;;;;;;3.22;1.80;;;24.20;62.40;;;;;;4146214;28;21578;-47
2021/12/04 02:47:54;;;;;;;3.75;1.92;;;24.20;62.20;;;;;;4155722;28;20466;-48
2021/12/04 02:49:57;;;;;;;3.63;1.90;;;24.20;62.20;;;;;;4153483;28;20707;-46
2021/12/04 02:52:07;;;;;;;4.95;2.08;;;24.20;62.70;;;;;;4167954;28;20048;-52
2021/12/04 02:54:12;;;;;;;5.28;1.95;;;24.20;61.80;;;;;;4166624;28;20135;-48
2021/12/04 02:56:14;;;;;;;3.40;1.65;;;24.20;61.70;;;;;;4162571;28;20098;-48
2021/12/04 02:58:16;;;;;;;3.65;1.67;;;24.20;61.70;;;;;;4159692;28;20075;-50
2021/12/04 03:00:23;;;;;;;2.65;1.58;;;24.20;61.60;;;;;;4157597;28;20044;-46
2021/12/04 03:02:25;;;;;;;3.65;1.90;;;24.20;61.50;;;;;;4164088;28;20048;-49
2021/12/04 03:04:28;;;;;;;2.80;1.50;;;24.20;61.30;;;;;;4163739;28;20984;-51
2021/12/04 03:06:30;;;;;;;4.00;1.70;;;24.20;61.20;;;;;;4159222;28;20185;-49
2021/12/04 03:08:32;;;;;;;2.42;1.55;;;24.30;61.20;;;;;;4158210;28;20059;-48
2021/12/04 03:10:35;;;;;;;3.95;1.65;;;24.30;61.10;;;;;;4170786;28;20055;-50
2021/12/04 03:12:40;;;;;;;3.10;1.58;;;24.30;61.10;;;;;;4162138;28;20076;-49
2021/12/04 03:14:42;;;;;;;4.18;1.30;;;24.30;61.20;;;;;;4159603;28;20074;-46
2021/12/04 03:16:44;;;;;;;3.50;1.40;;;24.30;61.10;;;;;;4162013;28;20346;-49
2021/12/04 03:18:47;;;;;;;3.75;1.38;;;24.30;61.10;;;;;;4167634;28;20951;-52
2021/12/04 03:20:51;;;;;;;2.90;1.45;;;24.30;61.00;;;;;;4164885;28;21944;-48
2021/12/04 03:22:59;;;;;;;2.78;1.20;;;24.30;61.10;;;;;;4161196;28;20079;-49
2021/12/04 03:25:01;;;;;;;3.50;1.52;;;24.30;60.90;;;;;;4165114;28;20044;-50
2021/12/04 03:27:03;;;;;;;2.42;1.20;;;24.30;60.90;;;;;;4168322;28;20506;-51
2021/12/04 03:29:15;;;;;;;2.17;1.27;;;24.30;60.80;;;;;;4175255;28;20048;-49
2021/12/04 03:31:41;;;;;;;2.67;1.42;;;24.40;60.90;;;;;;4176190;28;20048;-52
2021/12/04 03:40:54;;;;;;;3.92;1.50;;;24.40;60.70;;;;;;4171883;28;20132;-50
2021/12/04 03:42:56;;;;;;;2.20;1.27;;;24.40;60.70;;;;;;4168059;28;20530;-51
2021/12/04 03:44:58;;;;;;;3.30;1.40;;;24.40;60.70;;;;;;4174618;28;20138;-47
2021/12/04 03:47:02;;;;;;;3.25;1.35;;;24.40;60.80;;;;;;4165354;28;20145;-50
2021/12/04 03:49:04;;;;;;;2.40;1.35;;;24.40;60.70;;;;;;4166424;28;20122;-50
2021/12/04 03:51:07;;;;;;;3.58;1.17;;;24.40;60.70;;;;;;4170074;28;20075;-50
2021/12/04 03:53:08;;;;;;;;;;;24.40;60.60;;;;;;4175739;28;20079;-47
2021/12/04 03:55:12;;;;;;;2.92;1.58;;;24.40;60.50;;;;;;4165083;28;19928;-50
2021/12/04 03:57:13;;;;;;;;;;;24.40;60.50;;;;;;4168701;28;20775;-50
2021/12/04 03:59:15;;;;;;;2.05;1.20;;;24.40;60.50;;;;;;4170012;28;19932;-47
2021/12/04 04:02:14;;;;;;;3.95;1.75;;;24.40;59.90;;;;;;4183180;27;20418;-47
2021/12/04 04:04:16;;;;;;;3.00;1.30;;;24.40;60.40;;;;;;4164368;28;20052;-52
2021/12/04 04:06:18;;;;;;;4.03;1.38;;;24.40;60.40;;;;;;4175660;28;20070;-52
2021/12/04 04:08:21;;;;;;;3.55;1.50;;;24.40;60.80;;;;;;4169297;28;20083;-49
2021/12/04 04:10:23;;;;;;;;;;;24.40;61.00;;;;;;4162458;28;20060;-49
2021/12/04 04:12:25;;;;;;;3.53;1.40;;;24.40;60.30;;;;;;4171565;28;19938;-50
2021/12/04 04:14:27;;;;;;;3.90;1.38;;;24.40;60.40;;;;;;4176008;28;20048;-48
2021/12/04 04:16:30;;;;;;;2.90;1.50;;;24.40;60.30;;;;;;4166377;28;20048;-51
2021/12/04 04:18:33;;;;;;;4.63;1.50;;;24.40;60.20;;;;;;4167858;28;20147;-49
2021/12/04 04:20:36;;;;;;;2.13;1.48;;;24.40;60.20;;;;;;4189173;28;20102;-47
2021/12/04 04:22:38;;;;;;;3.35;1.60;;;24.40;60.20;;;;;;4172386;28;21035;-52
2021/12/04 04:24:40;;;;;;;3.75;1.80;;;24.40;60.20;;;;;;4164869;28;20078;-48
2021/12/04 04:26:45;;;;;;;2.80;1.50;;;24.40;60.10;;;;;;4170728;28;20056;-49
2021/12/04 04:28:47;;;;;;;3.25;1.80;;;24.40;60.20;;;;;;4171073;28;20524;-49
2021/12/04 04:30:49;;;;;;;5.10;1.70;;;24.40;60.20;;;;;;4169737;28;20966;-50
2021/12/04 04:32:53;;;;;;;4.10;1.90;;;24.40;60.10;;;;;;4170687;28;20075;-50
2021/12/04 04:34:57;;;;;;;5.30;2.00;;;24.40;60.10;;;;;;4167668;28;20044;-47
2021/12/04 05:11:34;;;;;;;3.92;1.48;;;24.40;60.40;;;;;;4161119;28;20057;-47
2021/12/04 05:13:37;;;;;;;3.28;1.60;;;24.40;60.40;;;;;;4147199;28;20056;-52
2021/12/04 05:18:06;;;;;;;6.10;2.28;;;24.40;60.40;;;;;;4149993;28;20650;-50
2021/12/04 05:20:12;;;;;;;4.80;2.22;;;24.30;60.20;;;;;;4146272;28;20049;-49
2021/12/04 05:22:16;;;;;;;4.93;2.30;;;24.30;60.20;;;;;;4143067;28;20084;-45
2021/12/04 05:24:18;;;;;;;5.28;2.08;;;24.30;60.40;;;;;;4122712;28;20053;-51
2021/12/04 05:26:24;;;;;;;5.80;2.55;;;24.40;60.40;;;;;;4139710;28;20053;-50
2021/12/04 05:28:26;;;;;;;4.65;2.28;;;24.30;60.30;;;;;;4140020;28;20057;-50
2021/12/04 05:30:29;;;;;;;6.18;2.40;;;24.30;60.20;;;;;;4141102;28;20056;-52
2021/12/04 05:32:31;;;;;;;5.10;2.30;;;24.30;60.20;;;;;;4137181;28;22020;-49
2021/12/04 05:34:34;;;;;;;5.18;2.15;;;24.30;60.20;;;;;;4130885;28;20049;-48
2021/12/04 05:36:36;;;;;;;6.65;2.33;;;24.30;60.30;;;;;;4140499;28;20048;-49
2021/12/04 05:38:39;;;;;;;4.65;2.28;;;24.30;60.40;;;;;;4143610;28;20897;-50
2021/12/04 05:40:42;;;;;;;5.85;2.78;;;24.30;60.20;;;;;;4132065;28;20083;-47
2021/12/04 05:42:45;;;;;;;6.15;2.60;;;24.30;60.30;;;;;;4135778;28;20107;-49
2021/12/04 05:44:47;;;;;;;5.28;2.58;;;24.30;60.30;;;;;;4145442;28;20045;-52
2021/12/04 05:46:58;;;;;;;6.78;2.70;;;24.30;60.30;;;;;;4144911;28;21595;-51
2021/12/04 05:49:05;;;;;;;6.22;2.45;;;24.30;60.30;;;;;;4144197;28;20083;-50
2021/12/04 05:53:43;;;;;;;5.32;2.83;;;24.30;60.40;;;;;;4143502;28;20066;-48
2021/12/04 05:55:56;;;;;;;5.80;2.50;;;24.30;60.40;;;;;;4135322;28;20634;-52
2021/12/04 05:57:59;;;;;;;4.82;2.50;;;24.30;60.50;;;;;;4136999;28;20056;-49
2021/12/04 06:00:01;;;;;;;6.57;2.97;;;24.30;60.40;;;;;;4133489;28;20529;-48
2021/12/04 06:02:04;;;;;;;4.93;2.90;;;24.30;60.50;;;;;;4125435;28;20175;-47
2021/12/04 06:04:06;;;;;;;6.70;2.83;;;24.30;60.60;;;;;;4130705;28;20087;-48
2021/12/04 06:06:09;;;;;;;4.57;2.93;;;24.30;60.70;;;;;;4129715;28;20570;-46
2021/12/04 06:08:12;;;;;;;7.45;2.70;;;24.30;60.70;;;;;;4132898;28;20314;-49
2021/12/04 06:10:14;;;;;;;7.80;3.25;;;24.30;60.70;;;;;;4128262;28;20060;-54
2021/12/04 06:12:16;;;;;;;9.30;3.37;;;24.30;60.80;;;;;;4130199;28;20067;-50
2021/12/04 06:14:18;;;;;;;4.75;3.03;;;24.30;60.80;;;;;;4127295;28;20320;-49
2021/12/04 06:16:21;;;;;;;8.25;3.05;;;24.30;60.80;;;;;;4125646;28;20771;-50
2021/12/04 06:18:24;;;;;;;8.10;3.55;;;24.30;60.80;;;;;;4132846;28;21068;-47
2021/12/04 06:22:46;;;;;;;5.00;2.90;;;24.30;60.70;;;;;;4132442;28;20060;-50
2021/12/04 06:24:48;;;;;;;6.25;3.00;;;24.30;60.70;;;;;;4130080;28;20551;-50
2021/12/04 06:26:51;;;;;;;6.57;3.45;;;24.20;60.70;;;;;;4134433;28;20049;-50
2021/12/04 06:28:53;;;;;;;5.25;3.05;;;24.30;60.80;;;;;;4133278;28;21850;-48
2021/12/04 06:30:58;;;;;;;8.15;2.85;;;24.20;60.70;;;;;;4133532;28;21171;-49
2021/12/04 06:33:00;;;;;;;5.18;3.25;;;24.30;60.80;;;;;;4130733;28;20181;-46
2021/12/04 06:35:03;;;;;;;5.95;2.92;;;24.20;60.70;;;;;;4135779;28;20086;-51
2021/12/04 06:37:05;;;;;;;;;;;24.20;60.70;;;;;;4134497;28;20076;-47
2021/12/04 06:39:09;;;;;;;5.20;3.03;;;24.20;60.70;;;;;;4128771;28;19928;-47
2021/12/04 06:41:11;;;;;;;4.28;2.90;;;24.20;60.70;;;;;;4130177;28;20163;-48
2021/12/04 06:43:14;;;;;;;8.05;3.33;;;24.20;60.80;;;;;;4153760;28;20048;-48
2021/12/04 06:45:16;;;;;;;7.45;3.28;;;24.20;60.70;;;;;;4131353;28;20836;-47
2021/12/04 06:47:18;;;;;;;5.93;3.05;;;24.20;60.60;;;;;;4128185;28;20052;-48
2021/12/04 06:49:25;;;;;;;6.93;3.53;;;24.20;60.60;;;;;;4134525;28;20041;-52
2021/12/04 06:55:38;;;;;;;6.30;3.23;;;24.20;60.80;;;;;;4125994;28;21068;-47
2021/12/04 06:57:43;;;;;;;5.38;3.00;;;24.20;60.70;;;;;;4131684;28;20052;-50
2021/12/04 06:59:47;;;;;;;5.97;3.28;;;24.20;60.70;;;;;;4130167;28;20059;-49
2021/12/04 07:02:13;;;;;;;6.10;3.30;;;24.20;60.20;;;;;;4151054;27;21361;-48
2021/12/04 07:04:17;;;;;;;6.38;3.13;;;24.20;60.80;;;;;;4152017;28;21287;-48
2021/12/04 07:06:20;;;;;;;6.45;3.40;;;24.20;60.80;;;;;;4155627;28;20045;-46
2021/12/04 07:08:22;;;;;;;8.13;3.45;;;24.20;60.80;;;;;;4162226;28;20072;-46
2021/12/04 07:10:24;;;;;;;5.40;3.63;;;24.20;60.80;;;;;;4153486;28;20301;-47
2021/12/04 07:12:26;;;;;;;8.27;3.92;;;24.20;60.80;;;;;;4155424;28;20053;-48
2021/12/04 07:14:29;;;;;;;6.22;3.95;;;24.20;60.80;;;;;;4162807;28;20084;-51
2021/12/04 07:16:32;;;;;;;8.52;3.78;;;24.20;60.90;;;;;;4161089;28;20047;-50
2021/12/04 07:18:38;;;;;;;6.32;3.40;;;24.20;60.90;;;;;;4154995;28;20179;-49
2021/12/04 07:20:40;;;;;;;7.38;3.53;;;24.20;60.90;;;;;;4143538;28;20174;-48
2021/12/04 07:22:42;;;;;;;5.90;3.20;;;24.20;61.00;;;;;;4151829;28;20060;-44
2021/12/04 07:24:45;;;;;;;8.50;3.38;;;24.10;61.00;;;;;;4159984;28;20044;-48
2021/12/04 07:26:48;;;;;;;6.88;3.53;;;24.10;61.00;;;;;;4148879;28;20051;-47
2021/12/04 07:28:50;;;;;;;6.30;3.80;;;24.10;61.10;;;;;;4150647;28;20048;-48
2021/12/04 07:30:52;;;;;;;6.97;3.33;;;24.10;61.10;;;;;;4152420;28;20049;-46
2021/12/04 07:32:55;;;;;;;7.35;3.65;;;24.10;61.20;;;;;;4152617;28;20228;-49
2021/12/04 07:34:57;;;;;;;8.13;3.88;;;24.10;61.20;;;;;;4147499;28;20052;-51
2021/12/04 07:36:59;;;;;;;6.15;3.80;;;24.10;61.20;;;;;;4151371;28;20059;-48
2021/12/04 07:39:02;;;;;;;6.75;3.80;;;24.10;61.20;;;;;;4160025;28;20515;-49
2021/12/04 07:41:04;;;;;;;6.18;3.95;;;24.10;61.20;;;;;;4148796;28;20052;-50
2021/12/04 07:43:07;;;;;;;7.13;4.10;;;24.10;61.20;;;;;;4148857;28;20053;-49
2021/12/04 07:45:09;;;;;;;6.93;3.58;;;24.10;61.20;;;;;;4148924;28;20053;-49
2021/12/04 07:47:12;;;;;;;6.65;3.88;;;24.10;61.90;;;;;;4153913;28;20052;-49
2021/12/04 07:49:14;;;;;;;7.65;3.97;;;24.10;61.30;;;;;;4149391;28;20316;-48
2021/12/04 07:51:17;;;;;;;7.70;3.75;;;24.10;61.20;;;;;;4150922;28;20131;-44
2021/12/04 07:53:21;;;;;;;6.95;4.13;;;24.10;61.30;;;;;;4146753;28;20079;-49
2021/12/04 07:55:22;;;;;;;;;;;24.00;61.20;;;;;;4140173;28;20136;-44
2021/12/04 07:57:25;;;;;;;5.78;3.55;;;24.00;61.20;;;;;;4131516;28;20862;-45
2021/12/04 07:59:28;;;;;;;7.60;3.78;;;24.00;61.20;;;;;;4131550;28;20080;-52
2021/12/04 08:01:30;;;;;;;4.82;3.53;;;24.00;61.30;;;;;;4132691;28;20185;-46
2021/12/04 08:03:33;;;;;;;5.97;3.85;;;24.00;61.30;;;;;;4143153;28;20044;-50
2021/12/04 08:05:35;;;;;;;5.95;4.07;;;24.00;61.30;;;;;;4129782;28;20048;-51
2021/12/04 08:07:38;;;;;;;4.40;3.10;;;24.00;61.30;;;;;;4135956;28;20049;-51
2021/12/04 08:09:40;;;;;;;6.60;3.50;;;24.00;61.40;;;;;;4142845;28;20057;-53
2021/12/04 08:11:43;;;;;;;5.13;3.42;;;24.00;61.30;;;;;;4143117;28;20049;-50
2021/12/04 08:13:47;;;;;;;5.25;3.45;;;24.00;61.40;;;;;;4127040;28;20575;-50
2021/12/04 08:15:49;;;;;;;6.45;3.65;;;24.00;61.30;;;;;;4126253;28;20068;-49
2021/12/04 08:17:51;;;;;;;6.88;3.75;;;24.00;61.40;;;;;;4131875;28;20088;-48
2021/12/04 08:19:53;;;;;;;6.72;3.90;;;24.00;61.80;;;;;;4129138;28;20049;-47
2021/12/04 08:21:56;;;;;;;5.90;3.80;;;24.00;61.40;;;;;;4120826;28;20063;-50
2021/12/04 08:23:58;;;;;;;7.22;4.03;;;24.00;61.50;;;;;;4122171;28;20658;-49
2021/12/04 08:26:00;;;;;;;5.75;3.50;;;24.00;61.50;;;;;;4127576;28;20045;-50
2021/12/04 08:28:02;;;;;;;5.28;3.63;;;24.00;61.60;;;;;;4120968;28;20986;-48
2021/12/04 08:30:08;;;;;;;4.38;3.20;;;23.90;62.10;;;;;;4121459;28;20172;-46
2021/12/04 08:32:10;;;;;;;5.50;3.47;;;23.90;61.60;;;;;;4121056;28;20538;-45
2021/12/04 08:34:12;;;;;;;8.88;4.25;;;23.90;61.70;;;;;;4128847;28;20753;-49
2021/12/04 08:36:15;;;;;;;6.15;4.05;;;24.00;61.90;;;;;;4125849;28;21329;-49
2021/12/04 08:38:17;;;;;;;5.65;4.20;;;23.90;62.00;;;;;;4121290;28;20049;-48
2021/12/04 08:40:19;;;;;;;6.38;3.88;;;23.90;62.10;;;;;;4121760;28;20040;-53
2021/12/04 08:42:22;;;;;;;7.00;4.28;;;23.90;62.30;;;;;;4131445;28;20053;-51
2021/12/04 08:44:25;;;;;;;7.00;4.10;;;23.90;62.10;;;;;;4117975;28;20175;-47
2021/12/04 08:46:27;;;;;;;6.10;4.25;;;23.90;62.10;;;;;;4119657;28;20061;-50
2021/12/04 08:48:31;;;;;;;7.13;4.50;;;23.90;62.20;;;;;;4124966;28;20138;-47
2021/12/04 08:50:35;;;;;;;5.95;3.80;;;23.90;62.20;;;;;;4128919;28;20052;-51
2021/12/04 08:52:38;;;;;;;6.13;4.15;;;23.90;62.20;;;;;;4120367;28;22309;-48
2021/12/04 08:54:41;;;;;;;6.70;4.30;;;23.90;62.20;;;;;;4121940;28;20107;-48
2021/12/04 08:56:43;;;;;;;7.40;3.88;;;23.90;62.30;;;;;;4123508;28;20127;-50
2021/12/04 08:58:45;;;;;;;5.60;4.30;;;23.90;62.30;;;;;;4126515;28;20052;-49
2021/12/04 09:00:49;;;;;;;6.25;3.85;;;23.90;62.40;;;;;;4121038;28;20151;-49
2021/12/04 09:02:52;;;;;;;7.97;3.97;;;23.80;62.30;;;;;;4121653;28;20061;-48
2021/12/04 09:04:57;;;;;;;6.00;3.50;;;23.90;62.40;;;;;;4122596;28;20257;-51
2021/12/04 09:07:03;;;;;;;5.88;4.15;;;23.90;62.50;;;;;;4127635;28;20965;-51
2021/12/04 09:09:09;;;;;;;5.57;4.18;;;23.80;62.40;;;;;;4128649;28;21967;-49
2021/12/04 09:11:18;;;;;;;7.60;4.05;;;23.80;62.40;;;;;;4122301;28;20490;-53
2021/12/04 09:13:20;;;;;;;6.65;4.22;;;23.80;62.40;;;;;;4120919;28;20049;-51
2021/12/04 09:15:28;;;;;;;5.28;3.90;;;23.80;62.30;;;;;;4121658;28;20872;-50
2021/12/04 09:17:30;;;;;;;7.75;4.25;;;23.80;62.30;;;;;;4124852;28;20122;-47
2021/12/04 09:19:32;;;;;;;6.50;3.83;;;23.80;62.40;;;;;;4127591;28;20056;-48
2021/12/04 09:21:36;;;;;;;5.07;3.80;;;23.80;62.30;;;;;;4120061;28;20143;-50
2021/12/04 09:23:44;;;;;;;5.70;3.95;;;23.80;62.30;;;;;;4123458;28;20642;-51
2021/12/04 09:25:56;;;;;;;5.95;3.67;;;23.80;62.20;;;;;;4120368;28;20064;-50
2021/12/04 09:30:26;;;;;;;6.75;3.85;;;23.80;62.30;;;;;;4123341;28;20057;-51
2021/12/04 10:05:01;;;;;;;4.30;1.73;;;23.80;63.50;;;;;;4153865;28;20114;-52
2021/12/04 10:18:55;;;;;;;2.50;1.38;;;23.90;63.60;;;;;;4142909;28;20166;-50
2021/12/04 10:32:34;;;;;;;1.88;1.33;;;24.00;63.70;;;;;;4143501;28;20175;-57
2021/12/04 10:34:37;;;;;;;2.65;1.20;;;24.00;63.70;;;;;;4143351;28;20523;-53
2021/12/04 10:36:40;;;;;;;2.35;1.30;;;24.00;63.70;;;;;;4147498;28;20219;-55
2021/12/04 10:38:44;;;;;;;2.05;1.23;;;24.00;63.70;;;;;;4130390;28;21941;-54
2021/12/04 10:40:49;;;;;;;4.20;1.42;;;24.00;63.70;;;;;;4141605;28;20434;-55
2021/12/04 10:42:59;;;;;;;3.33;1.08;;;24.00;63.70;;;;;;4141159;28;20128;-53
2021/12/04 10:45:03;;;;;;;3.55;1.52;;;24.00;63.70;;;;;;4141492;28;20179;-53
2021/12/04 10:47:12;;;;;;;3.65;1.20;;;24.00;63.70;;;;;;4146323;28;20041;-53
2021/12/04 10:49:16;;;;;;;2.15;1.35;;;24.00;63.70;;;;;;4147861;28;21500;-55
2021/12/04 10:53:28;;;;;;;2.85;1.10;;;24.00;63.60;;;;;;4140399;28;20064;-54
2021/12/04 10:59:06;;;;;;;;;;;24.00;63.60;;;;;;4149430;28;20052;-56
2021/12/04 11:00:41;;;;;;;2.08;1.02;;;24.10;63.60;;;;;;4137025;28;22174;-52
2021/12/04 11:02:48;;;;;;;2.92;1.35;;;24.00;63.50;;;;;;4144798;28;20183;-53
2021/12/04 11:05:01;;;;;;;1.95;1.00;;;24.00;63.50;;;;;;4142644;28;20055;-55
2021/12/04 11:07:48;;;;;;;2.07;0.93;;;24.10;63.50;;;;;;4143851;28;20882;-54
2021/12/04 11:45:19;;;;;;;2.80;0.85;;;24.10;63.40;;;;;;4121384;28;20558;-54
2021/12/04 11:47:21;;;;;;;3.63;1.20;;;24.10;63.30;;;;;;4140250;28;20526;-53
2021/12/04 11:49:30;;;;;;;2.53;1.10;;;24.10;63.30;;;;;;4132418;28;20053;-54
2021/12/04 11:51:32;;;;;;;1.85;0.85;;;24.10;63.30;;;;;;4115036;28;20160;-53
2021/12/04 11:53:35;;;;;;;1.20;0.75;;;24.10;63.20;;;;;;4132410;28;20056;-54
2021/12/04 11:55:43;;;;;;;1.95;0.90;;;24.10;63.20;;;;;;4131672;28;20075;-55
2021/12/04 11:57:45;;;;;;;1.42;0.60;;;24.10;63.20;;;;;;4134170;28;20474;-57
2021/12/04 11:59:48;;;;;;;2.57;0.93;;;24.10;63.20;;;;;;4138737;28;20263;-50
2021/12/04 12:01:57;;;;;;;2.17;0.70;;;24.10;63.40;;;;;;4129460;28;20597;-54
2021/12/04 12:04:03;;;;;;;2.83;1.10;;;24.10;63.20;;;;;;4132059;28;20077;-53
2021/12/04 12:06:08;;;;;;;2.08;0.93;;;24.10;63.10;;;;;;4129712;28;20060;-55
2021/12/04 12:08:22;;;;;;;2.08;0.85;;;24.10;63.10;;;;;;4131407;28;21054;-48
2021/12/04 12:10:26;;;;;;;2.28;1.00;;;24.10;63.10;;;;;;4133588;28;20057;-52
2021/12/04 12:12:37;;;;;;;0.73;0.70;;;24.10;63.20;;;;;;4130111;28;20532;-54
2021/12/04 12:14:53;;;;;;;2.03;0.90;;;24.10;63.20;;;;;;4131764;28;20057;-54
2021/12/04 12:16:56;;;;;;;0.93;0.75;;;24.10;63.10;;;;;;4130653;28;20514;-53
2021/12/04 12:19:15;;;;;;;2.10;1.10;;;24.10;63.10;;;;;;4131662;28;20048;-55
2021/12/04 12:21:22;;;;;;;0.85;0.60;;;24.10;63.10;;;;;;4131994;28;20064;-49
2021/12/04 12:23:28;;;;;;;2.60;1.00;;;24.10;63.10;;;;;;4129205;28;20652;-52
2021/12/04 12:25:56;;;;;;;2.03;1.20;;;24.00;62.60;;;;;;4132203;28;20056;-54
2021/12/04 12:33:15;;;;;;;2.15;1.10;;;24.00;62.70;;;;;;4138547;28;20064;-51
2021/12/04 12:37:53;;;;;;;2.95;1.10;;;24.00;62.70;;;;;;4130099;28;20084;-51
2021/12/04 12:40:01;;;;;;;2.03;1.08;;;24.00;62.80;;;;;;4137127;28;20518;-53
2021/12/04 12:42:03;;;;;;;2.58;0.80;;;24.00;62.80;;;;;;4135130;28;20057;-56
2021/12/04 12:44:23;;;;;;;2.05;1.00;;;24.00;62.70;;;;;;4132905;28;20500;-54
2021/12/04 12:46:51;;;;;;;1.33;0.65;;;24.00;62.70;;;;;;4135993;28;20138;-55
2021/12/04 12:48:56;;;;;;;2.78;0.93;;;24.00;62.80;;;;;;4132203;28;20041;-52
2021/12/04 12:51:07;;;;;;;1.40;0.70;;;24.00;62.70;;;;;;4132044;28;20360;-57
2021/12/04 12:53:15;;;;;;;2.92;0.90;;;24.00;62.70;;;;;;4131254;28;20037;-56
2021/12/04 12:55:23;;;;;;;0.60;0.50;;;24.00;62.90;;;;;;4132806;28;20036;-56
2021/12/04 12:57:42;;;;;;;2.47;0.90;;;24.00;62.80;;;;;;4133181;28;20649;-54
2021/12/04 13:12:05;;;;;;;1.00;0.73;;;24.00;62.80;;;;;;4170668;28;20135;-52
2021/12/04 13:14:22;;;;;;;1.55;0.80;;;23.90;62.70;;;;;;4179418;28;20787;-55
2021/12/04 13:16:31;;;;;;;1.30;0.70;;;23.90;62.70;;;;;;4177558;28;20048;-52
2021/12/04 13:18:36;;;;;;;3.35;1.10;;;23.90;62.50;;;;;;4180585;28;20415;-59
2021/12/04 13:20:39;;;;;;;4.45;1.30;;;23.90;62.50;;;;;;4182408;28;20643;-52
2021/12/04 13:22:41;;;;;;;4.55;1.20;;;24.00;62.50;;;;;;4173926;28;20155;-50
2021/12/04 13:24:45;;;;;;;6.95;1.00;;;23.90;62.30;;;;;;4171397;28;20197;-50
2021/12/04 13:26:52;;;;;;;2.67;1.00;;;23.90;62.30;;;;;;4174384;28;20064;-50
2021/12/04 13:28:54;;;;;;;5.07;0.95;;;23.90;62.40;;;;;;4180340;28;20055;-49
2021/12/04 13:31:00;;;;;;;2.08;0.70;;;23.90;62.30;;;;;;4171282;28;21635;-47
2021/12/04 13:33:08;;;;;;;2.92;0.60;;;23.90;62.20;;;;;;4170125;28;20063;-45
2021/12/04 13:35:21;;;;;;;2.33;0.60;;;23.90;62.40;;;;;;4168370;28;20078;-45
2021/12/04 13:37:27;;;;;;;2.60;0.88;;;23.80;62.30;;;;;;4171007;28;20067;-48
2021/12/04 13:39:30;;;;;;;4.57;1.20;;;23.80;62.30;;;;;;4170956;28;20044;-47
2021/12/04 13:41:33;;;;;;;3.97;0.95;;;23.80;62.20;;;;;;4175453;28;20063;-48
2021/12/04 13:43:35;;;;;;;0.47;0.47;;;23.80;62.40;;;;;;4177302;28;20419;-48
2021/12/04 13:45:38;;;;;;;1.40;0.60;;;23.80;62.30;;;;;;4170846;28;20495;-47
2021/12/04 13:47:41;;;;;;;1.98;0.80;;;23.80;62.20;;;;;;4174942;28;20044;-45
2021/12/04 13:50:08;;;;;;;0.90;0.52;;;23.80;62.70;;;;;;4181231;28;20430;-46
2021/12/04 13:52:14;;;;;;;0.98;0.50;;;23.70;62.20;;;;;;4172115;28;20056;-46